Morning Lady — 3FKC3 — position and weather

sailwx.info

Track history (hours):
 
Tides and Currents Weather Stations Pressure Air Temp Water Temp Dewpoint Dewpoint Depression Visibility Wind Speed Wind Dir Waves Ship Positions

Morning Lady

Last reported at 2014-Sep-11 21:30 UTC. Time now 2014-Sep-23 00:22 UTC.
Position N 28°42' W 120°36'.
Warning: this ship's position is 11 days out of date.

Length 234 m; draft 9.5 m.

Type: Ship. MMSI: 356473000.

Date/timePositionNaut miles runAvg speedWind from/ knotsBaromVisibWave heightAir tempDewpointWater temp
2014-Sep-11 21:30N 28°42' W 120°36'4313.6
2014-Sep-11 18:19N 29°16' W 121°07'1112.9
2014-Sep-11 17:30N 29°23' W 121°16'1212.9
2014-Sep-11 16:33N 29°32' W 121°26'1313.2
2014-Sep-11 15:33N 29°41' W 121°37'1313.2
2014-Sep-11 14:33N 29°50' W 121°48'1313.3
2014-Sep-11 13:33N 29°59' W 121°59'1413.4
2014-Sep-11 12:33N 30°07' W 122°12'1513.3
2014-Sep-11 11:24N 30°17' W 122°25'1113.2
2014-Sep-11 10:33N 30°23' W 122°36'1413.2
2014-Sep-11 09:32N 30°31' W 122°48'1313.2
2014-Sep-11 08:33N 30°39' W 123°00'1313.1
2014-Sep-11 07:33N 30°47' W 123°13'1513.1
2014-Sep-11 06:26N 30°56' W 123°26'1313.0
2014-Sep-11 05:28N 31°04' W 123°38'1312.8
2014-Sep-11 04:28N 31°11' W 123°50'1112.5
2014-Sep-11 03:33N 31°18' W 124°01'1912.5
2014-Sep-11 02:05N 31°30' W 124°18'1012.7
2014-Sep-11 01:16N 31°36' W 124°27'912.8
2014-Sep-11 00:33N 31°41' W 124°36'1212.3
2014-Sep-10 23:33N 31°47' W 124°49'1412.9
2014-Sep-10 22:27N 31°57' W 125°01'1112.7
2014-Sep-10 21:33N 32°04' W 125°12'1312.7
2014-Sep-10 20:33N 32°11' W 125°24'1212.3
2014-Sep-10 19:33N 32°19' W 125°35'1212.3
2014-Sep-10 18:33N 32°26' W 125°47'1312.5
2014-Sep-10 17:32N 32°34' W 125°59'1512.6
2014-Sep-10 16:22N 32°43' W 126°13'1012.6
2014-Sep-10 15:33N 32°49' W 126°23'1412.7
2014-Sep-10 14:27N 32°57' W 126°36'1212.7
2014-Sep-10 13:30N 33°05' W 126°47'1812.8
2014-Sep-10 12:06N 33°15' W 127°04'712.7
2014-Sep-10 11:31N 33°20' W 127°11'1212.8
2014-Sep-10 10:33N 33°27' W 127°23'1313.0
2014-Sep-10 09:33N 33°35' W 127°36'1412.6
2014-Sep-10 08:24N 33°44' W 127°50'4912.7
2014-Sep-10 04:33N 34°13' W 128°37'  
Track history (hours):
 
Tides and Currents Weather Stations Pressure Air Temp Water Temp Dewpoint Dewpoint Depression Visibility Wind Speed Wind Dir Waves Ship Positions

Morning Lady

Last reported at 2014-Sep-11 21:30 UTC. Time now 2014-Sep-23 00:22 UTC.
Position N 28°42' W 120°36'.
Warning: this ship's position is 11 days out of date.

Length 234 m; draft 9.5 m.

Type: Ship. MMSI: 356473000.

Date/timePositionNaut miles runAvg speedWind from/ knotsBaromVisibWave heightAir tempDewpointWater temp
2014-Sep-11 21:30N 28°42' W 120°36'4313.6
2014-Sep-11 18:19N 29°16' W 121°07'1112.9
2014-Sep-11 17:30N 29°23' W 121°16'1212.9
2014-Sep-11 16:33N 29°32' W 121°26'1313.2
2014-Sep-11 15:33N 29°41' W 121°37'1313.2
2014-Sep-11 14:33N 29°50' W 121°48'1313.3
2014-Sep-11 13:33N 29°59' W 121°59'1413.4
2014-Sep-11 12:33N 30°07' W 122°12'1513.3
2014-Sep-11 11:24N 30°17' W 122°25'1113.2
2014-Sep-11 10:33N 30°23' W 122°36'1413.2
2014-Sep-11 09:32N 30°31' W 122°48'1313.2
2014-Sep-11 08:33N 30°39' W 123°00'1313.1
2014-Sep-11 07:33N 30°47' W 123°13'1513.1
2014-Sep-11 06:26N 30°56' W 123°26'1313.0
2014-Sep-11 05:28N 31°04' W 123°38'1312.8
2014-Sep-11 04:28N 31°11' W 123°50'1112.5
2014-Sep-11 03:33N 31°18' W 124°01'1912.5
2014-Sep-11 02:05N 31°30' W 124°18'1012.7
2014-Sep-11 01:16N 31°36' W 124°27'912.8
2014-Sep-11 00:33N 31°41' W 124°36'1212.3
2014-Sep-10 23:33N 31°47' W 124°49'1412.9
2014-Sep-10 22:27N 31°57' W 125°01'1112.7
2014-Sep-10 21:33N 32°04' W 125°12'1312.7
2014-Sep-10 20:33N 32°11' W 125°24'1212.3
2014-Sep-10 19:33N 32°19' W 125°35'1212.3
2014-Sep-10 18:33N 32°26' W 125°47'1312.5
2014-Sep-10 17:32N 32°34' W 125°59'1512.6
2014-Sep-10 16:22N 32°43' W 126°13'1012.6
2014-Sep-10 15:33N 32°49' W 126°23'1412.7
2014-Sep-10 14:27N 32°57' W 126°36'1212.7
2014-Sep-10 13:30N 33°05' W 126°47'1812.8
2014-Sep-10 12:06N 33°15' W 127°04'712.7
2014-Sep-10 11:31N 33°20' W 127°11'1212.8
2014-Sep-10 10:33N 33°27' W 127°23'1313.0
2014-Sep-10 09:33N 33°35' W 127°36'1412.6
2014-Sep-10 08:24N 33°44' W 127°50'4912.7
2014-Sep-10 04:33N 34°13' W 128°37'  

Dump ship's entire track history